sensor_id;sensor_type;location;lat;lon;timestamp;temperature;humidity
59893;DHT22;45758;51.052;3.740;2022-10-31T00:01:42;14.80;99.90
59893;DHT22;45758;51.052;3.740;2022-10-31T00:04:08;14.80;99.90
59893;DHT22;45758;51.052;3.740;2022-10-31T00:06:34;14.70;99.90
59893;DHT22;45758;51.052;3.740;2022-10-31T00:09:01;14.70;99.90
59893;DHT22;45758;51.052;3.740;2022-10-31T00:11:28;14.70;99.90
59893;DHT22;45758;51.052;3.740;2022-10-31T00:13:54;14.60;99.90
59893;DHT22;45758;51.052;3.740;2022-10-31T00:16:22;14.60;99.90
59893;DHT22;45758;51.052;3.740;2022-10-31T00:19:00;14.60;99.90
59893;DHT22;45758;51.052;3.740;2022-10-31T00:21:26;14.50;99.90
59893;DHT22;45758;51.052;3.740;2022-10-31T00:23:52;14.40;99.90
59893;DHT22;45758;51.052;3.740;2022-10-31T00:26:18;14.40;99.90
59893;DHT22;45758;51.052;3.740;2022-10-31T00:28:44;14.30;99.90
59893;DHT22;45758;51.052;3.740;2022-10-31T00:31:11;14.30;99.90
59893;DHT22;45758;51.052;3.740;2022-10-31T00:33:39;14.30;99.90
59893;DHT22;45758;51.052;3.740;2022-10-31T00:36:07;14.30;99.90
59893;DHT22;45758;51.052;3.740;2022-10-31T00:38:33;14.30;99.90
59893;DHT22;45758;51.052;3.740;2022-10-31T00:40:59;14.20;99.90
59893;DHT22;45758;51.052;3.740;2022-10-31T00:43:26;14.20;99.90
59893;DHT22;45758;51.052;3.740;2022-10-31T00:45:52;14.20;99.90
59893;DHT22;45758;51.052;3.740;2022-10-31T00:48:18;14.20;99.90
59893;DHT22;45758;51.052;3.740;2022-10-31T00:50:43;14.20;99.90
59893;DHT22;45758;51.052;3.740;2022-10-31T00:53:10;14.20;99.90
59893;DHT22;45758;51.052;3.740;2022-10-31T00:55:36;14.20;99.90
59893;DHT22;45758;51.052;3.740;2022-10-31T00:58:02;14.20;99.90
59893;DHT22;45758;51.052;3.740;2022-10-31T01:00:27;14.20;99.90
59893;DHT22;45758;51.052;3.740;2022-10-31T01:02:53;14.20;99.90
59893;DHT22;45758;51.052;3.740;2022-10-31T01:05:20;14.20;99.90
59893;DHT22;45758;51.052;3.740;2022-10-31T01:07:46;14.20;99.90
59893;DHT22;45758;51.052;3.740;2022-10-31T01:10:11;14.10;99.90
59893;DHT22;45758;51.052;3.740;2022-10-31T01:12:39;14.10;99.90
59893;DHT22;45758;51.052;3.740;2022-10-31T01:15:06;14.00;99.90
59893;DHT22;45758;51.052;3.740;2022-10-31T01:17:32;14.00;99.90
59893;DHT22;45758;51.052;3.740;2022-10-31T01:19:57;14.00;99.90
59893;DHT22;45758;51.052;3.740;2022-10-31T01:22:23;14.00;99.90
59893;DHT22;45758;51.052;3.740;2022-10-31T01:24:49;14.00;99.90
59893;DHT22;45758;51.052;3.740;2022-10-31T01:27:15;13.90;99.90
59893;DHT22;45758;51.052;3.740;2022-10-31T01:29:41;13.90;99.90
59893;DHT22;45758;51.052;3.740;2022-10-31T01:32:07;13.90;99.90
59893;DHT22;45758;51.052;3.740;2022-10-31T01:34:33;13.80;99.90
59893;DHT22;45758;51.052;3.740;2022-10-31T01:36:59;13.80;99.90
59893;DHT22;45758;51.052;3.740;2022-10-31T01:39:24;13.80;99.90
59893;DHT22;45758;51.052;3.740;2022-10-31T01:41:53;13.70;99.90
59893;DHT22;45758;51.052;3.740;2022-10-31T01:46:58;13.70;99.90
59893;DHT22;45758;51.052;3.740;2022-10-31T01:52:09;13.60;99.90
59893;DHT22;45758;51.052;3.740;2022-10-31T01:54:40;13.50;99.90
59893;DHT22;45758;51.052;3.740;2022-10-31T01:57:10;13.50;99.90
59893;DHT22;45758;51.052;3.740;2022-10-31T01:59:43;13.40;99.90
59893;DHT22;45758;51.052;3.740;2022-10-31T02:02:10;13.50;99.90
59893;DHT22;45758;51.052;3.740;2022-10-31T02:04:37;13.50;99.90
59893;DHT22;45758;51.052;3.740;2022-10-31T02:07:20;13.50;99.90
59893;DHT22;45758;51.052;3.740;2022-10-31T02:09:47;13.50;99.90
59893;DHT22;45758;51.052;3.740;2022-10-31T02:12:15;13.50;99.90
59893;DHT22;45758;51.052;3.740;2022-10-31T02:14:42;13.50;99.90
59893;DHT22;45758;51.052;3.740;2022-10-31T02:17:08;13.40;99.90
59893;DHT22;45758;51.052;3.740;2022-10-31T02:22:38;13.30;99.90
59893;DHT22;45758;51.052;3.740;2022-10-31T02:25:42;13.20;99.90
59893;DHT22;45758;51.052;3.740;2022-10-31T02:33:43;13.20;99.90
59893;DHT22;45758;51.052;3.740;2022-10-31T02:36:40;13.10;99.90
59893;DHT22;45758;51.052;3.740;2022-10-31T02:39:17;13.10;99.90
59893;DHT22;45758;51.052;3.740;2022-10-31T02:47:18;13.00;99.90
59893;DHT22;45758;51.052;3.740;2022-10-31T02:49:59;13.00;99.90
59893;DHT22;45758;51.052;3.740;2022-10-31T02:52:27;13.00;99.90
59893;DHT22;45758;51.052;3.740;2022-10-31T02:54:54;12.90;99.90
59893;DHT22;45758;51.052;3.740;2022-10-31T02:57:28;12.90;99.90
59893;DHT22;45758;51.052;3.740;2022-10-31T03:00:02;12.80;99.90
59893;DHT22;45758;51.052;3.740;2022-10-31T03:08:04;12.70;99.90
59893;DHT22;45758;51.052;3.740;2022-10-31T03:10:56;12.70;99.90
59893;DHT22;45758;51.052;3.740;2022-10-31T03:21:45;12.70;99.90
59893;DHT22;45758;51.052;3.740;2022-10-31T03:24:13;12.70;99.90
59893;DHT22;45758;51.052;3.740;2022-10-31T03:26:46;12.80;99.90
59893;DHT22;45758;51.052;3.740;2022-10-31T03:29:15;12.80;99.90
59893;DHT22;45758;51.052;3.740;2022-10-31T03:31:59;12.80;99.90
59893;DHT22;45758;51.052;3.740;2022-10-31T03:34:27;12.80;99.90
59893;DHT22;45758;51.052;3.740;2022-10-31T03:36:58;12.90;99.90
59893;DHT22;45758;51.052;3.740;2022-10-31T03:39:25;12.90;99.90
59893;DHT22;45758;51.052;3.740;2022-10-31T03:42:31;12.90;99.90
59893;DHT22;45758;51.052;3.740;2022-10-31T03:45:05;12.80;99.90
59893;DHT22;45758;51.052;3.740;2022-10-31T03:47:32;12.70;99.90
59893;DHT22;45758;51.052;3.740;2022-10-31T03:49:59;12.70;99.90
59893;DHT22;45758;51.052;3.740;2022-10-31T03:55:19;12.50;99.90
59893;DHT22;45758;51.052;3.740;2022-10-31T03:57:59;12.50;99.90
59893;DHT22;45758;51.052;3.740;2022-10-31T04:00:27;12.50;99.90
59893;DHT22;45758;51.052;3.740;2022-10-31T04:03:00;12.40;99.90
59893;DHT22;45758;51.052;3.740;2022-10-31T04:05:27;12.40;99.90
59893;DHT22;45758;51.052;3.740;2022-10-31T04:07:55;12.50;99.90
59893;DHT22;45758;51.052;3.740;2022-10-31T04:10:23;12.50;99.90
59893;DHT22;45758;51.052;3.740;2022-10-31T04:12:55;12.50;99.90
59893;DHT22;45758;51.052;3.740;2022-10-31T04:15:24;12.50;99.90
59893;DHT22;45758;51.052;3.740;2022-10-31T04:17:52;12.40;99.90
59893;DHT22;45758;51.052;3.740;2022-10-31T04:20:28;12.40;99.90
59893;DHT22;45758;51.052;3.740;2022-10-31T04:22:54;12.40;99.90
59893;DHT22;45758;51.052;3.740;2022-10-31T04:25:20;12.40;99.90
59893;DHT22;45758;51.052;3.740;2022-10-31T04:27:46;12.40;99.90
59893;DHT22;45758;51.052;3.740;2022-10-31T04:30:12;12.40;99.90
59893;DHT22;45758;51.052;3.740;2022-10-31T04:32:38;12.40;99.90
59893;DHT22;45758;51.052;3.740;2022-10-31T04:35:04;12.40;99.90
59893;DHT22;45758;51.052;3.740;2022-10-31T04:37:31;12.50;99.90
59893;DHT22;45758;51.052;3.740;2022-10-31T04:39:57;12.40;99.90
59893;DHT22;45758;51.052;3.740;2022-10-31T04:42:22;12.40;99.90
59893;DHT22;45758;51.052;3.740;2022-10-31T04:44:48;12.30;99.90
59893;DHT22;45758;51.052;3.740;2022-10-31T04:47:14;12.20;99.90
59893;DHT22;45758;51.052;3.740;2022-10-31T04:49:40;12.10;99.90
59893;DHT22;45758;51.052;3.740;2022-10-31T04:52:06;12.00;99.90
59893;DHT22;45758;51.052;3.740;2022-10-31T04:54:33;12.00;99.90
59893;DHT22;45758;51.052;3.740;2022-10-31T04:56:59;11.90;99.90
59893;DHT22;45758;51.052;3.740;2022-10-31T04:59:25;11.90;99.90
59893;DHT22;45758;51.052;3.740;2022-10-31T05:01:51;12.00;99.90
59893;DHT22;45758;51.052;3.740;2022-10-31T05:04:17;12.10;99.90
59893;DHT22;45758;51.052;3.740;2022-10-31T05:06:43;12.00;99.90
59893;DHT22;45758;51.052;3.740;2022-10-31T05:09:08;12.10;99.90
59893;DHT22;45758;51.052;3.740;2022-10-31T05:11:34;12.10;99.90
59893;DHT22;45758;51.052;3.740;2022-10-31T05:14:00;12.00;99.90
59893;DHT22;45758;51.052;3.740;2022-10-31T05:16:26;11.90;99.90
59893;DHT22;45758;51.052;3.740;2022-10-31T05:18:53;11.90;99.90
59893;DHT22;45758;51.052;3.740;2022-10-31T05:21:19;11.90;99.90
59893;DHT22;45758;51.052;3.740;2022-10-31T05:23:45;11.90;99.90
59893;DHT22;45758;51.052;3.740;2022-10-31T05:26:11;11.80;99.90
59893;DHT22;45758;51.052;3.740;2022-10-31T05:28:36;11.80;99.90
59893;DHT22;45758;51.052;3.740;2022-10-31T05:31:02;11.80;99.90
59893;DHT22;45758;51.052;3.740;2022-10-31T05:33:28;11.80;99.90
59893;DHT22;45758;51.052;3.740;2022-10-31T05:35:54;11.80;99.90
59893;DHT22;45758;51.052;3.740;2022-10-31T05:38:20;11.70;99.90
59893;DHT22;45758;51.052;3.740;2022-10-31T05:40:46;11.60;99.90
59893;DHT22;45758;51.052;3.740;2022-10-31T05:43:12;11.70;99.90
59893;DHT22;45758;51.052;3.740;2022-10-31T05:45:38;11.70;99.90
59893;DHT22;45758;51.052;3.740;2022-10-31T05:48:04;11.60;99.90
59893;DHT22;45758;51.052;3.740;2022-10-31T05:50:31;11.60;99.90
59893;DHT22;45758;51.052;3.740;2022-10-31T05:52:59;11.50;99.90
59893;DHT22;45758;51.052;3.740;2022-10-31T05:55:26;11.50;99.90
59893;DHT22;45758;51.052;3.740;2022-10-31T05:57:52;11.50;99.90
59893;DHT22;45758;51.052;3.740;2022-10-31T06:00:19;11.50;99.90
59893;DHT22;45758;51.052;3.740;2022-10-31T06:02:45;11.50;99.90
59893;DHT22;45758;51.052;3.740;2022-10-31T06:05:14;11.50;99.90
59893;DHT22;45758;51.052;3.740;2022-10-31T06:07:41;11.70;99.90
59893;DHT22;45758;51.052;3.740;2022-10-31T06:10:08;11.80;99.90
59893;DHT22;45758;51.052;3.740;2022-10-31T06:12:35;11.70;99.90
59893;DHT22;45758;51.052;3.740;2022-10-31T06:15:06;11.90;99.90
59893;DHT22;45758;51.052;3.740;2022-10-31T06:17:33;11.80;99.90
59893;DHT22;45758;51.052;3.740;2022-10-31T06:19:59;11.80;99.90
59893;DHT22;45758;51.052;3.740;2022-10-31T06:22:25;11.80;99.90
59893;DHT22;45758;51.052;3.740;2022-10-31T06:24:51;11.80;99.90
59893;DHT22;45758;51.052;3.740;2022-10-31T06:27:17;11.90;99.90
59893;DHT22;45758;51.052;3.740;2022-10-31T06:29:43;11.90;99.90
59893;DHT22;45758;51.052;3.740;2022-10-31T06:32:11;12.00;99.90
59893;DHT22;45758;51.052;3.740;2022-10-31T06:34:39;12.00;99.90
59893;DHT22;45758;51.052;3.740;2022-10-31T06:37:09;12.00;99.90
59893;DHT22;45758;51.052;3.740;2022-10-31T06:39:35;12.10;99.90
59893;DHT22;45758;51.052;3.740;2022-10-31T06:42:02;12.10;99.90
59893;DHT22;45758;51.052;3.740;2022-10-31T06:44:28;12.20;99.90
59893;DHT22;45758;51.052;3.740;2022-10-31T06:46:54;12.20;99.90
59893;DHT22;45758;51.052;3.740;2022-10-31T06:49:20;12.20;99.90
59893;DHT22;45758;51.052;3.740;2022-10-31T06:51:50;12.10;99.90
59893;DHT22;45758;51.052;3.740;2022-10-31T06:54:16;12.20;99.90
59893;DHT22;45758;51.052;3.740;2022-10-31T06:56:45;12.20;99.90
59893;DHT22;45758;51.052;3.740;2022-10-31T06:59:10;12.30;99.90
59893;DHT22;45758;51.052;3.740;2022-10-31T07:01:39;12.30;99.90
59893;DHT22;45758;51.052;3.740;2022-10-31T07:04:05;12.30;99.90
59893;DHT22;45758;51.052;3.740;2022-10-31T07:06:31;12.40;99.90
59893;DHT22;45758;51.052;3.740;2022-10-31T07:08:57;12.40;99.90
59893;DHT22;45758;51.052;3.740;2022-10-31T07:11:23;12.50;99.90
59893;DHT22;45758;51.052;3.740;2022-10-31T07:13:49;12.70;99.90
59893;DHT22;45758;51.052;3.740;2022-10-31T07:16:15;12.60;99.90
59893;DHT22;45758;51.052;3.740;2022-10-31T07:18:40;12.60;99.90
59893;DHT22;45758;51.052;3.740;2022-10-31T07:21:06;12.60;99.90
59893;DHT22;45758;51.052;3.740;2022-10-31T07:23:32;12.70;99.90
59893;DHT22;45758;51.052;3.740;2022-10-31T07:25:59;12.70;99.90
59893;DHT22;45758;51.052;3.740;2022-10-31T07:28:26;12.70;99.90
59893;DHT22;45758;51.052;3.740;2022-10-31T07:30:53;12.70;99.90
59893;DHT22;45758;51.052;3.740;2022-10-31T07:33:19;12.70;99.90
59893;DHT22;45758;51.052;3.740;2022-10-31T07:35:45;12.80;99.90
59893;DHT22;45758;51.052;3.740;2022-10-31T07:38:12;12.70;99.90
59893;DHT22;45758;51.052;3.740;2022-10-31T07:40:39;12.70;99.90
59893;DHT22;45758;51.052;3.740;2022-10-31T07:43:06;12.80;99.90
59893;DHT22;45758;51.052;3.740;2022-10-31T07:45:32;12.70;99.90
59893;DHT22;45758;51.052;3.740;2022-10-31T07:47:57;12.80;99.90
59893;DHT22;45758;51.052;3.740;2022-10-31T07:50:26;12.90;99.90
59893;DHT22;45758;51.052;3.740;2022-10-31T07:53:04;12.90;99.90
59893;DHT22;45758;51.052;3.740;2022-10-31T07:55:30;12.90;99.90
59893;DHT22;45758;51.052;3.740;2022-10-31T07:58:01;12.90;99.90
59893;DHT22;45758;51.052;3.740;2022-10-31T08:00:28;13.00;99.90
59893;DHT22;45758;51.052;3.740;2022-10-31T08:03:06;13.10;99.90
59893;DHT22;45758;51.052;3.740;2022-10-31T08:05:33;13.20;99.90
59893;DHT22;45758;51.052;3.740;2022-10-31T08:07:59;13.20;99.90
59893;DHT22;45758;51.052;3.740;2022-10-31T08:10:26;13.30;99.90
59893;DHT22;45758;51.052;3.740;2022-10-31T08:13:12;13.30;99.90
59893;DHT22;45758;51.052;3.740;2022-10-31T08:15:38;13.30;99.90
59893;DHT22;45758;51.052;3.740;2022-10-31T08:18:13;13.30;99.90
59893;DHT22;45758;51.052;3.740;2022-10-31T08:20:40;13.40;99.90
59893;DHT22;45758;51.052;3.740;2022-10-31T08:23:07;13.30;99.90
59893;DHT22;45758;51.052;3.740;2022-10-31T08:25:34;13.30;99.90
59893;DHT22;45758;51.052;3.740;2022-10-31T08:28:01;13.40;99.90
59893;DHT22;45758;51.052;3.740;2022-10-31T08:30:29;13.40;99.90
59893;DHT22;45758;51.052;3.740;2022-10-31T08:33:16;13.40;99.90
59893;DHT22;45758;51.052;3.740;2022-10-31T08:35:42;13.50;99.90
59893;DHT22;45758;51.052;3.740;2022-10-31T08:38:10;13.60;99.90
59893;DHT22;45758;51.052;3.740;2022-10-31T08:40:36;13.60;99.90
59893;DHT22;45758;51.052;3.740;2022-10-31T08:45:33;13.80;99.90
59893;DHT22;45758;51.052;3.740;2022-10-31T08:48:01;13.90;99.90
59893;DHT22;45758;51.052;3.740;2022-10-31T08:50:29;13.90;99.90
59893;DHT22;45758;51.052;3.740;2022-10-31T08:53:13;14.10;99.90
59893;DHT22;45758;51.052;3.740;2022-10-31T08:55:40;14.20;99.90
59893;DHT22;45758;51.052;3.740;2022-10-31T08:58:15;14.30;99.90
59893;DHT22;45758;51.052;3.740;2022-10-31T09:00:42;14.40;99.90
59893;DHT22;45758;51.052;3.740;2022-10-31T09:03:21;14.50;99.90
59893;DHT22;45758;51.052;3.740;2022-10-31T09:05:47;14.50;99.90
59893;DHT22;45758;51.052;3.740;2022-10-31T09:08:14;14.60;99.90
59893;DHT22;45758;51.052;3.740;2022-10-31T09:10:40;14.70;99.90
59893;DHT22;45758;51.052;3.740;2022-10-31T09:13:12;14.80;99.90
59893;DHT22;45758;51.052;3.740;2022-10-31T09:15:39;14.80;99.90
59893;DHT22;45758;51.052;3.740;2022-10-31T09:18:06;14.80;99.90
59893;DHT22;45758;51.052;3.740;2022-10-31T09:20:34;14.80;99.90
59893;DHT22;45758;51.052;3.740;2022-10-31T09:23:04;14.90;99.90
59893;DHT22;45758;51.052;3.740;2022-10-31T09:25:32;15.00;99.90
59893;DHT22;45758;51.052;3.740;2022-10-31T09:27:59;15.00;99.90
59893;DHT22;45758;51.052;3.740;2022-10-31T09:30:27;15.20;99.90
59893;DHT22;45758;51.052;3.740;2022-10-31T09:32:57;15.20;99.90
59893;DHT22;45758;51.052;3.740;2022-10-31T09:35:24;15.30;99.90
59893;DHT22;45758;51.052;3.740;2022-10-31T09:38:03;15.40;99.90
59893;DHT22;45758;51.052;3.740;2022-10-31T09:40:35;15.40;99.90
59893;DHT22;45758;51.052;3.740;2022-10-31T09:43:39;15.50;99.90
59893;DHT22;45758;51.052;3.740;2022-10-31T09:51:29;15.40;99.90
59893;DHT22;45758;51.052;3.740;2022-10-31T09:54:06;15.60;99.90
59893;DHT22;45758;51.052;3.740;2022-10-31T09:56:34;15.70;99.90
59893;DHT22;45758;51.052;3.740;2022-10-31T09:59:03;15.70;99.90
59893;DHT22;45758;51.052;3.740;2022-10-31T10:10:00;15.90;99.90
59893;DHT22;45758;51.052;3.740;2022-10-31T10:15:34;16.00;99.90
59893;DHT22;45758;51.052;3.740;2022-10-31T10:23:55;16.20;99.90
59893;DHT22;45758;51.052;3.740;2022-10-31T10:26:29;16.30;99.90
59893;DHT22;45758;51.052;3.740;2022-10-31T10:31:46;16.30;99.90
59893;DHT22;45758;51.052;3.740;2022-10-31T10:34:37;16.30;99.90
59893;DHT22;45758;51.052;3.740;2022-10-31T10:39:43;16.60;99.90
59893;DHT22;45758;51.052;3.740;2022-10-31T10:42:15;16.70;99.90
59893;DHT22;45758;51.052;3.740;2022-10-31T10:45:00;16.70;99.90
59893;DHT22;45758;51.052;3.740;2022-10-31T10:48:02;16.80;99.90
59893;DHT22;45758;51.052;3.740;2022-10-31T10:50:35;16.90;99.90
59893;DHT22;45758;51.052;3.740;2022-10-31T10:53:34;17.00;99.90
59893;DHT22;45758;51.052;3.740;2022-10-31T10:56:49;17.00;99.90
59893;DHT22;45758;51.052;3.740;2022-10-31T10:59:19;16.80;99.90
59893;DHT22;45758;51.052;3.740;2022-10-31T11:01:46;16.70;99.90
59893;DHT22;45758;51.052;3.740;2022-10-31T11:04:34;16.70;99.90
59893;DHT22;45758;51.052;3.740;2022-10-31T11:07:09;16.70;99.90
59893;DHT22;45758;51.052;3.740;2022-10-31T11:09:36;16.70;99.90
59893;DHT22;45758;51.052;3.740;2022-10-31T11:12:24;16.70;99.90
59893;DHT22;45758;51.052;3.740;2022-10-31T11:14:55;16.70;99.90
59893;DHT22;45758;51.052;3.740;2022-10-31T11:22:37;17.10;99.90
59893;DHT22;45758;51.052;3.740;2022-10-31T11:25:22;17.20;99.90
59893;DHT22;45758;51.052;3.740;2022-10-31T11:28:06;17.20;99.90
59893;DHT22;45758;51.052;3.740;2022-10-31T11:30:46;17.30;99.90
59893;DHT22;45758;51.052;3.740;2022-10-31T11:35:48;17.50;99.90
59893;DHT22;45758;51.052;3.740;2022-10-31T11:38:19;17.60;99.90
59893;DHT22;45758;51.052;3.740;2022-10-31T11:40:59;17.70;99.90
59893;DHT22;45758;51.052;3.740;2022-10-31T11:43:26;17.80;99.90
59893;DHT22;45758;51.052;3.740;2022-10-31T11:45:53;17.90;99.90
59893;DHT22;45758;51.052;3.740;2022-10-31T11:48:21;17.90;99.90
59893;DHT22;45758;51.052;3.740;2022-10-31T11:50:55;17.70;99.90
59893;DHT22;45758;51.052;3.740;2022-10-31T11:53:33;17.70;99.90
59893;DHT22;45758;51.052;3.740;2022-10-31T11:56:14;17.80;99.90
59893;DHT22;45758;51.052;3.740;2022-10-31T11:58:40;17.90;99.90
59893;DHT22;45758;51.052;3.740;2022-10-31T12:01:29;17.90;99.90
59893;DHT22;45758;51.052;3.740;2022-10-31T12:04:12;18.00;99.90
59893;DHT22;45758;51.052;3.740;2022-10-31T12:06:41;18.10;99.90
59893;DHT22;45758;51.052;3.740;2022-10-31T12:09:23;18.10;99.90
59893;DHT22;45758;51.052;3.740;2022-10-31T12:17:04;18.10;99.90
59893;DHT22;45758;51.052;3.740;2022-10-31T12:22:28;18.10;99.90
59893;DHT22;45758;51.052;3.740;2022-10-31T12:25:16;18.10;99.90
59893;DHT22;45758;51.052;3.740;2022-10-31T12:27:57;18.10;99.90
59893;DHT22;45758;51.052;3.740;2022-10-31T12:30:50;18.20;99.90
59893;DHT22;45758;51.052;3.740;2022-10-31T12:41:57;18.40;99.90
59893;DHT22;45758;51.052;3.740;2022-10-31T12:47:22;18.40;99.90
59893;DHT22;45758;51.052;3.740;2022-10-31T12:56:04;18.30;99.90
59893;DHT22;45758;51.052;3.740;2022-10-31T12:58:43;18.40;99.90
59893;DHT22;45758;51.052;3.740;2022-10-31T13:06:24;18.20;99.90
59893;DHT22;45758;51.052;3.740;2022-10-31T13:08:54;18.10;99.90
59893;DHT22;45758;51.052;3.740;2022-10-31T13:11:44;18.20;99.90
59893;DHT22;45758;51.052;3.740;2022-10-31T13:14:32;18.20;99.90
59893;DHT22;45758;51.052;3.740;2022-10-31T13:17:01;18.30;99.90
59893;DHT22;45758;51.052;3.740;2022-10-31T13:19:41;18.20;99.90
59893;DHT22;45758;51.052;3.740;2022-10-31T13:22:20;18.30;99.90
59893;DHT22;45758;51.052;3.740;2022-10-31T13:28:05;18.60;99.90
59893;DHT22;45758;51.052;3.740;2022-10-31T13:30:39;18.50;99.90
59893;DHT22;45758;51.052;3.740;2022-10-31T13:33:27;18.60;99.90
59893;DHT22;45758;51.052;3.740;2022-10-31T13:41:59;18.30;99.90
59893;DHT22;45758;51.052;3.740;2022-10-31T13:44:27;18.20;99.90
59893;DHT22;45758;51.052;3.740;2022-10-31T13:46:57;18.10;99.90
59893;DHT22;45758;51.052;3.740;2022-10-31T13:54:39;18.20;99.90
59893;DHT22;45758;51.052;3.740;2022-10-31T13:59:56;18.20;99.90
59893;DHT22;45758;51.052;3.740;2022-10-31T14:02:31;18.10;99.90
59893;DHT22;45758;51.052;3.740;2022-10-31T14:05:06;18.00;99.90
59893;DHT22;45758;51.052;3.740;2022-10-31T14:07:45;18.00;99.90
59893;DHT22;45758;51.052;3.740;2022-10-31T14:12:50;18.00;99.90
59893;DHT22;45758;51.052;3.740;2022-10-31T14:15:24;18.00;99.90
59893;DHT22;45758;51.052;3.740;2022-10-31T14:17:57;18.00;99.90
59893;DHT22;45758;51.052;3.740;2022-10-31T14:20:40;18.00;99.90
59893;DHT22;45758;51.052;3.740;2022-10-31T14:23:35;17.80;99.90
59893;DHT22;45758;51.052;3.740;2022-10-31T14:26:16;17.90;99.90
59893;DHT22;45758;51.052;3.740;2022-10-31T14:28:42;17.80;99.90
59893;DHT22;45758;51.052;3.740;2022-10-31T14:33:53;17.70;99.90
59893;DHT22;45758;51.052;3.740;2022-10-31T14:36:28;17.70;99.90
59893;DHT22;45758;51.052;3.740;2022-10-31T14:39:11;17.60;99.90
59893;DHT22;45758;51.052;3.740;2022-10-31T14:44:23;17.70;99.90
59893;DHT22;45758;51.052;3.740;2022-10-31T14:50:04;17.80;99.90
59893;DHT22;45758;51.052;3.740;2022-10-31T14:52:36;17.90;99.90
59893;DHT22;45758;51.052;3.740;2022-10-31T14:55:06;18.00;99.90
59893;DHT22;45758;51.052;3.740;2022-10-31T14:57:37;17.90;99.90
59893;DHT22;45758;51.052;3.740;2022-10-31T15:00:15;17.90;99.90
59893;DHT22;45758;51.052;3.740;2022-10-31T15:05:15;17.90;99.90
59893;DHT22;45758;51.052;3.740;2022-10-31T15:07:55;17.80;99.90
59893;DHT22;45758;51.052;3.740;2022-10-31T15:10:23;17.70;99.90
59893;DHT22;45758;51.052;3.740;2022-10-31T15:12:49;17.70;99.90
59893;DHT22;45758;51.052;3.740;2022-10-31T15:15:23;17.60;99.90
59893;DHT22;45758;51.052;3.740;2022-10-31T15:17:54;17.60;99.90
59893;DHT22;45758;51.052;3.740;2022-10-31T15:20:22;17.70;99.90
59893;DHT22;45758;51.052;3.740;2022-10-31T15:22:50;17.60;99.90
59893;DHT22;45758;51.052;3.740;2022-10-31T15:25:21;17.60;99.90
59893;DHT22;45758;51.052;3.740;2022-10-31T15:27:49;17.50;99.90
59893;DHT22;45758;51.052;3.740;2022-10-31T15:30:21;17.50;99.90
59893;DHT22;45758;51.052;3.740;2022-10-31T15:32:47;17.50;99.90
59893;DHT22;45758;51.052;3.740;2022-10-31T15:35:28;17.50;99.90
59893;DHT22;45758;51.052;3.740;2022-10-31T15:37:55;17.60;99.90
59893;DHT22;45758;51.052;3.740;2022-10-31T15:40:23;17.60;99.90
59893;DHT22;45758;51.052;3.740;2022-10-31T15:43:03;17.60;99.90
59893;DHT22;45758;51.052;3.740;2022-10-31T15:45:29;17.50;99.90
59893;DHT22;45758;51.052;3.740;2022-10-31T15:47:57;17.60;99.90
59893;DHT22;45758;51.052;3.740;2022-10-31T15:50:31;17.60;99.90
59893;DHT22;45758;51.052;3.740;2022-10-31T15:52:58;17.50;99.90
59893;DHT22;45758;51.052;3.740;2022-10-31T15:55:27;17.50;99.90
59893;DHT22;45758;51.052;3.740;2022-10-31T15:57:56;17.50;99.90
59893;DHT22;45758;51.052;3.740;2022-10-31T16:00:37;17.50;99.90
59893;DHT22;45758;51.052;3.740;2022-10-31T16:05:48;17.30;99.90
59893;DHT22;45758;51.052;3.740;2022-10-31T16:10:56;17.20;99.90
59893;DHT22;45758;51.052;3.740;2022-10-31T16:13:31;17.30;99.90
59893;DHT22;45758;51.052;3.740;2022-10-31T16:16:04;17.20;99.90
59893;DHT22;45758;51.052;3.740;2022-10-31T16:18:36;17.30;99.90
59893;DHT22;45758;51.052;3.740;2022-10-31T16:21:03;17.20;99.90
59893;DHT22;45758;51.052;3.740;2022-10-31T16:23:29;17.20;99.90
59893;DHT22;45758;51.052;3.740;2022-10-31T16:25:55;17.20;99.90
59893;DHT22;45758;51.052;3.740;2022-10-31T16:28:26;17.20;99.90
59893;DHT22;45758;51.052;3.740;2022-10-31T16:30:54;17.20;99.90
59893;DHT22;45758;51.052;3.740;2022-10-31T16:35:50;17.00;99.90
59893;DHT22;45758;51.052;3.740;2022-10-31T16:38:16;17.00;99.90
59893;DHT22;45758;51.052;3.740;2022-10-31T16:40:42;16.90;99.90
59893;DHT22;45758;51.052;3.740;2022-10-31T16:43:11;16.90;99.90
59893;DHT22;45758;51.052;3.740;2022-10-31T16:45:43;16.80;99.90
59893;DHT22;45758;51.052;3.740;2022-10-31T16:48:15;16.90;99.90
59893;DHT22;45758;51.052;3.740;2022-10-31T16:50:42;16.80;99.90
59893;DHT22;45758;51.052;3.740;2022-10-31T16:53:09;16.80;99.90
59893;DHT22;45758;51.052;3.740;2022-10-31T16:56:02;16.80;99.90
59893;DHT22;45758;51.052;3.740;2022-10-31T16:58:30;16.80;99.90
59893;DHT22;45758;51.052;3.740;2022-10-31T17:00:57;16.70;99.90
59893;DHT22;45758;51.052;3.740;2022-10-31T17:03:24;16.60;99.90
59893;DHT22;45758;51.052;3.740;2022-10-31T17:05:49;16.60;99.90
59893;DHT22;45758;51.052;3.740;2022-10-31T17:08:15;16.60;99.90
59893;DHT22;45758;51.052;3.740;2022-10-31T17:10:43;16.50;99.90
59893;DHT22;45758;51.052;3.740;2022-10-31T17:13:15;16.40;99.90
59893;DHT22;45758;51.052;3.740;2022-10-31T17:15:46;16.40;99.90
59893;DHT22;45758;51.052;3.740;2022-10-31T17:18:14;16.40;99.90
59893;DHT22;45758;51.052;3.740;2022-10-31T17:20:40;16.30;99.90
59893;DHT22;45758;51.052;3.740;2022-10-31T17:23:08;16.30;99.90
59893;DHT22;45758;51.052;3.740;2022-10-31T17:25:34;16.40;99.90
59893;DHT22;45758;51.052;3.740;2022-10-31T17:28:00;16.40;99.90
59893;DHT22;45758;51.052;3.740;2022-10-31T17:30:26;16.40;99.90
59893;DHT22;45758;51.052;3.740;2022-10-31T17:32:52;16.20;99.90
59893;DHT22;45758;51.052;3.740;2022-10-31T17:35:20;16.10;99.90
59893;DHT22;45758;51.052;3.740;2022-10-31T17:37:46;16.00;99.90
59893;DHT22;45758;51.052;3.740;2022-10-31T17:40:15;16.00;99.90
59893;DHT22;45758;51.052;3.740;2022-10-31T17:42:41;15.90;99.90
59893;DHT22;45758;51.052;3.740;2022-10-31T17:45:07;15.90;99.90
59893;DHT22;45758;51.052;3.740;2022-10-31T17:47:33;15.80;99.90
59893;DHT22;45758;51.052;3.740;2022-10-31T17:50:00;15.70;99.90
59893;DHT22;45758;51.052;3.740;2022-10-31T17:52:25;15.60;99.90
59893;DHT22;45758;51.052;3.740;2022-10-31T17:54:51;15.50;99.90
59893;DHT22;45758;51.052;3.740;2022-10-31T17:57:17;15.40;99.90
59893;DHT22;45758;51.052;3.740;2022-10-31T17:59:43;15.50;99.90
59893;DHT22;45758;51.052;3.740;2022-10-31T18:02:09;15.40;99.90
59893;DHT22;45758;51.052;3.740;2022-10-31T18:04:36;15.50;99.90
59893;DHT22;45758;51.052;3.740;2022-10-31T18:07:03;15.50;99.90
59893;DHT22;45758;51.052;3.740;2022-10-31T18:09:29;15.60;99.90
59893;DHT22;45758;51.052;3.740;2022-10-31T18:11:55;15.70;99.90
59893;DHT22;45758;51.052;3.740;2022-10-31T18:14:20;15.80;99.90